Time;durP1;ratioP1;P1;durP2;ratioP2;P2;SDS_P1;SDS_P2;PMS_P1;PMS_P2;Temp;Humidity;BMP_temperature;BMP_pressure;BME280_temperature;BME280_humidity;BME280_pressure;Samples;Min_cycle;Max_cycle;Signal;HPM_P1;HPM_P2
2024/02/24 00:01:43;;;;;;;;;;;;;;;16.38;49.48;100766.34;5038683;28;1000;-57
2024/02/24 00:04:08;;;;;;;;;;;;;;;16.03;50.38;100756.13;5038755;28;1047;-57
2024/02/24 00:06:34;;;;;;;;;;;;;;;15.83;50.73;100756.88;5039009;28;2488;-57
2024/02/24 00:08:59;;;;;;;;;;;;;;;15.64;51.28;100761.97;5038918;28;1023;-56
2024/02/24 00:11:24;;;;;;;;;;;;;;;15.45;51.58;100754.22;5038604;28;1910;-57
2024/02/24 00:13:50;;;;;;;;;;;;;;;16.20;50.03;100755.88;5038677;28;1052;-57
2024/02/24 00:16:15;;;;;;;;;;;;;;;17.49;46.80;100750.31;5038535;28;1114;-56
2024/02/24 00:18:41;;;;;;;;;;;;;;;16.74;48.47;100749.88;5038737;28;1112;-57
2024/02/24 00:21:06;;;;;;;;;;;;;;;16.14;49.80;100743.25;5038473;28;1062;-56
2024/02/24 00:23:32;;;;;;;;;;;;;;;15.88;50.50;100741.28;5038788;28;1016;-57
2024/02/24 00:25:57;;;;;;;;;;;;;;;15.72;51.23;100751.34;5038428;28;1162;-56
2024/02/24 00:28:23;;;;;;;;;;;;;;;15.55;51.52;100745.22;5038777;28;1047;-56
2024/02/24 00:30:48;;;;;;;;;;;;;;;16.99;48.10;100742.75;5038550;28;1106;-55
2024/02/24 00:33:14;;;;;;;;;;;;;;;17.38;46.97;100744.88;5037993;28;1910;-55
2024/02/24 00:35:40;;;;;;;;;;;;;;;16.28;49.56;100749.84;5038711;28;1136;-55
2024/02/24 00:38:05;;;;;;;;;;;;;;;16.06;50.37;100747.34;5028973;28;2715;-56
2024/02/24 00:40:31;;;;;;;;;;;;;;;15.73;50.97;100747.50;5034017;28;1017;-57
2024/02/24 00:42:56;;;;;;;;;;;;;;;15.64;51.20;100746.38;5038387;28;1043;-56
2024/02/24 00:45:22;;;;;;;;;;;;;;;15.84;51.16;100747.56;5037891;28;1062;-56
2024/02/24 00:47:47;;;;;;;;;;;;;;;17.31;47.06;100741.59;5038504;28;1101;-55
2024/02/24 00:50:13;;;;;;;;;;;;;;;16.87;48.20;100742.19;5038398;28;1051;-56
2024/02/24 00:52:39;;;;;;;;;;;;;;;16.16;49.95;100749.28;5038224;28;1902;-56
2024/02/24 00:55:05;;;;;;;;;;;;;;;15.89;50.85;100739.34;5037938;28;1268;-56
2024/02/24 00:57:30;;;;;;;;;;;;;;;15.70;50.99;100748.03;5038261;28;859;-56
2024/02/24 00:59:56;;;;;;;;;;;;;;;15.56;51.22;100736.72;5038097;28;1055;-56
2024/02/24 01:02:21;;;;;;;;;;;;;;;16.81;48.37;100729.56;5038122;28;1107;-56
2024/02/24 01:04:48;;;;;;;;;;;;;;;17.49;46.49;100726.41;5037540;28;1056;-56
2024/02/24 01:07:15;;;;;;;;;;;;;;;16.48;49.13;100734.50;5037526;28;2491;-56
2024/02/24 01:09:41;;;;;;;;;;;;;;;16.03;50.43;100726.78;5037256;28;1000;-56
2024/02/24 01:12:06;;;;;;;;;;;;;;;15.74;51.11;100734.63;5037835;28;1957;-56
2024/02/24 01:14:32;;;;;;;;;;;;;;;15.56;51.60;100736.72;5036032;28;1106;-55
2024/02/24 01:16:57;;;;;;;;;;;;;;;15.81;51.06;100739.88;5026122;28;1413;-52
2024/02/24 01:19:23;;;;;;;;;;;;;;;17.28;47.19;100733.91;5037782;28;1176;-55
2024/02/24 01:21:48;;;;;;;;;;;;;;;16.80;48.33;100733.41;5027984;28;2286;-57
2024/02/24 01:24:14;;;;;;;;;;;;;;;16.12;49.97;100729.81;5032554;28;1071;-56
2024/02/24 01:26:40;;;;;;;;;;;;;;;15.85;50.99;100735.50;5037457;28;2435;-53
2024/02/24 01:29:05;;;;;;;;;;;;;;;15.64;51.09;100740.91;5037263;28;1832;-54
2024/02/24 01:31:31;;;;;;;;;;;;;;;15.45;51.59;100735.03;5036997;28;1922;-53
2024/02/24 01:33:57;;;;;;;;;;;;;;;16.76;48.77;100730.41;5036900;28;1957;-55
2024/02/24 01:36:22;;;;;;;;;;;;;;;17.78;46.23;100732.06;5037097;28;2299;-55
2024/02/24 01:38:48;;;;;;;;;;;;;;;16.73;48.40;100729.03;5036909;28;2197;-56
2024/02/24 01:41:13;;;;;;;;;;;;;;;16.21;49.92;100721.88;5037054;28;1066;-57
2024/02/24 01:43:39;;;;;;;;;;;;;;;15.99;50.54;100733.91;5037221;28;1113;-55
2024/02/24 01:46:05;;;;;;;;;;;;;;;15.73;51.15;100722.00;5036730;28;963;-56
2024/02/24 01:48:32;;;;;;;;;;;;;;;15.70;50.95;100728.03;5023884;28;1198;-55
2024/02/24 01:50:57;;;;;;;;;;;;;;;16.76;48.76;100722.16;5037256;28;1096;-56
2024/02/24 01:53:23;;;;;;;;;;;;;;;17.57;46.55;100725.00;5023006;28;1910;-56
2024/02/24 01:55:48;;;;;;;;;;;;;;;16.53;48.89;100731.78;5017328;28;1132;-55
2024/02/24 01:58:14;;;;;;;;;;;;;;;16.10;50.29;100731.19;5031176;28;1059;-55
2024/02/24 02:00:40;;;;;;;;;;;;;;;15.88;50.56;100737.72;5037183;28;1470;-54
2024/02/24 02:03:05;;;;;;;;;;;;;;;15.65;51.28;100723.34;5023814;28;1190;-56
2024/02/24 02:05:31;;;;;;;;;;;;;;;15.87;50.91;100728.66;5036891;28;1066;-55
2024/02/24 02:07:56;;;;;;;;;;;;;;;17.38;47.09;100731.13;5036339;28;1095;-55
2024/02/24 02:10:22;;;;;;;;;;;;;;;16.89;48.05;100718.88;5031968;28;2709;-55
2024/02/24 02:12:47;;;;;;;;;;;;;;;16.29;49.54;100726.81;5035716;28;1960;-57
2024/02/24 02:15:13;;;;;;;;;;;;;;;16.06;50.06;100725.41;5024730;28;1068;-57
2024/02/24 02:17:38;;;;;;;;;;;;;;;15.76;51.13;100723.38;5023596;28;1126;-55
2024/02/24 02:20:04;;;;;;;;;;;;;;;15.68;51.22;100720.06;5036323;28;1094;-56
2024/02/24 02:22:30;;;;;;;;;;;;;;;16.52;49.27;100724.63;5036263;28;1146;-58
2024/02/24 02:24:56;;;;;;;;;;;;;;;17.54;46.62;100720.88;5036641;28;1000;-57
2024/02/24 02:27:21;;;;;;;;;;;;;;;16.52;49.10;100725.47;5036671;28;1152;-56
2024/02/24 02:29:47;;;;;;;;;;;;;;;16.10;50.11;100731.19;5029820;28;1043;-56
2024/02/24 02:32:12;;;;;;;;;;;;;;;15.87;50.88;100725.09;5030136;28;1898;-56
2024/02/24 02:34:38;;;;;;;;;;;;;;;15.67;51.01;100721.16;5036312;28;988;-57
2024/02/24 02:37:05;;;;;;;;;;;;;;;15.86;51.08;100728.91;5036432;28;1084;-56
2024/02/24 02:39:30;;;;;;;;;;;;;;;17.37;47.32;100729.47;5033144;28;2753;-56
2024/02/24 02:41:56;;;;;;;;;;;;;;;16.67;48.45;100721.88;5036175;28;1259;-55
2024/02/24 02:44:22;;;;;;;;;;;;;;;16.15;49.90;100726.53;5036104;28;1039;-55
2024/02/24 02:46:48;;;;;;;;;;;;;;;15.84;50.60;100729.19;5035734;28;909;-57
2024/02/24 02:49:17;;;;;;;;;;;;;;;15.69;51.00;100729.13;5036356;28;1090;-55
2024/02/24 02:51:42;;;;;;;;;;;;;;;15.43;51.74;100730.91;5035861;28;2003;-56
2024/02/24 02:54:08;;;;;;;;;;;;;;;16.59;49.21;100737.00;5036430;28;1020;-57
2024/02/24 02:56:33;;;;;;;;;;;;;;;17.69;46.33;100733.75;5035682;28;1216;-55
2024/02/24 02:58:59;;;;;;;;;;;;;;;16.70;48.58;100737.78;5035785;28;961;-56
2024/02/24 03:01:25;;;;;;;;;;;;;;;16.18;49.71;100739.69;5035342;28;1111;-56
2024/02/24 03:03:50;;;;;;;;;;;;;;;15.88;50.58;100737.72;5036083;28;1000;-59
2024/02/24 03:06:17;;;;;;;;;;;;;;;15.63;51.21;100741.16;5036260;28;1106;-57
2024/02/24 03:08:43;;;;;;;;;;;;;;;15.55;51.45;100739.75;5036116;28;2482;-56
2024/02/24 03:11:12;;;;;;;;;;;;;;;16.55;49.22;100746.03;5035568;28;984;-56
2024/02/24 03:13:38;;;;;;;;;;;;;;;17.65;46.50;100734.59;5035776;28;1914;-56
2024/02/24 03:16:04;;;;;;;;;;;;;;;16.60;48.88;100740.56;5034511;28;1154;-56
2024/02/24 03:18:29;;;;;;;;;;;;;;;16.14;49.83;100740.50;5033765;28;1070;-57
2024/02/24 03:20:55;;;;;;;;;;;;;;;15.80;50.84;100744.53;5036023;28;1190;-56
2024/02/24 03:23:21;;;;;;;;;;;;;;;15.67;50.99;100737.59;5035196;28;930;-56
2024/02/24 03:25:46;;;;;;;;;;;;;;;15.92;50.89;100738.81;5035895;28;1130;-57
2024/02/24 03:28:12;;;;;;;;;;;;;;;17.38;47.01;100736.63;5036189;28;1211;-56
2024/02/24 03:30:37;;;;;;;;;;;;;;;16.95;47.62;100741.66;5035804;28;1087;-57
2024/02/24 03:33:03;;;;;;;;;;;;;;;16.30;49.61;100746.84;5035743;28;1906;-57
2024/02/24 03:35:28;;;;;;;;;;;;;;;15.91;50.60;100745.41;5035497;28;896;-57
2024/02/24 03:37:54;;;;;;;;;;;;;;;15.79;50.74;100745.63;5035645;28;1138;-56
2024/02/24 03:40:19;;;;;;;;;;;;;;;15.62;51.26;100756.78;5033804;28;2703;-55
2024/02/24 03:42:45;;;;;;;;;;;;;;;16.06;50.28;100750.94;5039728;28;1119;-56
2024/02/24 03:45:10;;;;;;;;;;;;;;;17.42;46.78;100737.69;5039198;28;1048;-56
2024/02/24 03:47:36;;;;;;;;;;;;;;;17.08;47.40;100749.34;5038880;28;853;-56
2024/02/24 03:50:01;;;;;;;;;;;;;;;16.31;49.29;100746.56;5039274;28;1059;-56
2024/02/24 03:52:27;;;;;;;;;;;;;;;15.99;50.14;100746.78;5026446;28;1981;-56
2024/02/24 03:54:52;;;;;;;;;;;;;;;15.84;50.82;100748.38;5038587;28;1128;-56
2024/02/24 03:57:18;;;;;;;;;;;;;;;15.63;51.09;100747.47;5039300;28;1187;-56
2024/02/24 03:59:43;;;;;;;;;;;;;;;16.51;49.36;100758.66;5025962;28;907;-56
2024/02/24 04:02:09;;;;;;;;;;;;;;;17.70;46.29;100751.91;5039264;28;1032;-57
2024/02/24 04:04:34;;;;;;;;;;;;;;;16.74;48.41;100744.38;5039365;28;1166;-57
2024/02/24 04:07:00;;;;;;;;;;;;;;;16.19;49.75;100755.06;5039206;28;1031;-57
2024/02/24 04:09:25;;;;;;;;;;;;;;;16.03;50.15;100750.63;5029712;28;2439;-56
2024/02/24 04:11:52;;;;;;;;;;;;;;;15.76;51.14;100739.84;5038798;28;1910;-57
2024/02/24 04:14:18;;;;;;;;;;;;;;;15.60;51.32;100753.47;5025805;28;1139;-57
2024/02/24 04:16:43;;;;;;;;;;;;;;;16.70;48.61;100754.28;5038299;28;1100;-57
2024/02/24 04:19:09;;;;;;;;;;;;;;;17.75;45.90;100756.53;5038604;28;1118;-55
2024/02/24 04:21:34;;;;;;;;;;;;;;;16.65;48.56;100756.19;5033114;28;1106;-56
2024/02/24 04:24:00;;;;;;;;;;;;;;;16.31;49.57;100760.28;5036550;28;907;-53
2024/02/24 04:26:25;;;;;;;;;;;;;;;16.02;50.23;100760.78;5038829;28;1391;-53
2024/02/24 04:28:51;;;;;;;;;;;;;;;15.76;50.83;100756.28;5038915;28;1171;-55
2024/02/24 04:31:16;;;;;;;;;;;;;;;16.35;49.80;100758.66;5038466;28;1150;-56
2024/02/24 04:33:42;;;;;;;;;;;;;;;17.64;46.37;100755.75;5038347;28;2007;-54
2024/02/24 04:36:09;;;;;;;;;;;;;;;16.77;48.40;100757.59;5037771;28;1123;-53
2024/02/24 04:38:35;;;;;;;;;;;;;;;16.24;49.87;100773.44;5028447;28;2763;-54
2024/02/24 04:41:00;;;;;;;;;;;;;;;15.96;50.43;100759.09;5038152;28;1022;-58
2024/02/24 04:43:26;;;;;;;;;;;;;;;15.73;50.94;100758.47;5038442;28;1094;-57
2024/02/24 04:45:51;;;;;;;;;;;;;;;15.64;51.38;100765.56;5038231;28;1111;-57
2024/02/24 04:48:17;;;;;;;;;;;;;;;15.54;51.70;100769.09;5038202;28;953;-56
2024/02/24 04:50:42;;;;;;;;;;;;;;;17.02;48.08;100771.59;5037478;28;1131;-60
2024/02/24 04:53:08;;;;;;;;;;;;;;;16.98;47.85;100765.00;5037965;28;1985;-57
2024/02/24 04:55:33;;;;;;;;;;;;;;;16.20;49.93;100772.34;5035794;28;1421;-53
2024/02/24 04:57:59;;;;;;;;;;;;;;;15.90;50.37;100774.72;5038242;28;1060;-55
2024/02/24 05:00:25;;;;;;;;;;;;;;;15.76;50.83;100784.50;5037782;28;845;-54
2024/02/24 05:02:50;;;;;;;;;;;;;;;15.55;51.37;100778.94;5038168;28;1027;-57
2024/02/24 05:05:16;;;;;;;;;;;;;;;16.37;49.69;100788.59;5037752;28;1479;-57
2024/02/24 05:07:41;;;;;;;;;;;;;;;17.42;46.85;100787.19;5038402;28;1190;-59
2024/02/24 05:10:07;;;;;;;;;;;;;;;16.36;49.29;100797.91;5032229;28;2496;-55
2024/02/24 05:12:33;;;;;;;;;;;;;;;15.96;50.35;100808.47;5037095;28;1914;-57
2024/02/24 05:14:58;;;;;;;;;;;;;;;17.23;47.24;100794.38;5037643;28;1070;-56
2024/02/24 05:17:25;;;;;;;;;;;;;;;17.07;47.58;100807.31;5037451;28;1130;-59
2024/02/24 05:19:51;;;;;;;;;;;;;;;16.13;49.32;100811.03;5024117;28;1051;-59
2024/02/24 05:22:17;;;;;;;;;;;;;;;15.87;49.19;100818.31;5037315;28;1134;-60
2024/02/24 05:24:43;;;;;;;;;;;;;;;17.30;47.30;100813.31;5036944;28;1007;-59
2024/02/24 05:27:08;;;;;;;;;;;;;;;16.38;48.87;100825.88;5036980;28;1102;-58
2024/02/24 05:29:34;;;;;;;;;;;;;;;15.99;49.51;100826.31;5037091;28;1187;-59
2024/02/24 05:31:59;;;;;;;;;;;;;;;16.96;47.82;100828.47;5037114;28;1910;-63
2024/02/24 05:34:25;;;;;;;;;;;;;;;16.14;49.30;100825.56;5036752;28;1210;-62
2024/02/24 05:36:50;;;;;;;;;;;;;;;17.30;47.49;100833.38;5036995;28;1198;-61
2024/02/24 05:39:16;;;;;;;;;;;;;;;16.72;48.57;100839.94;5036585;28;1163;-64
2024/02/24 05:41:41;;;;;;;;;;;;;;;16.23;48.42;100837.66;5037512;28;1230;-61
2024/02/24 05:44:07;;;;;;;;;;;;;;;16.61;48.64;100835.56;5037414;28;1131;-57
2024/02/24 05:46:32;;;;;;;;;;;;;;;17.68;46.44;100839.34;5036641;28;1091;-64
2024/02/24 05:48:58;;;;;;;;;;;;;;;16.49;48.51;100840.47;5036802;28;1135;-64
2024/02/24 05:51:24;;;;;;;;;;;;;;;16.97;48.42;100852.09;5036823;28;1976;-57
2024/02/24 05:53:50;;;;;;;;;;;;;;;17.35;47.47;100840.78;5019523;28;1103;-57
2024/02/24 05:56:15;;;;;;;;;;;;;;;16.43;48.66;100837.69;5017099;28;1462;-58
2024/02/24 05:58:41;;;;;;;;;;;;;;;16.20;48.19;100843.66;5020580;28;1128;-58
2024/02/24 06:01:06;;;;;;;;;;;;;;;17.77;46.81;100850.59;5036823;28;1067;-58
2024/02/24 06:03:32;;;;;;;;;;;;;;;17.20;47.46;100855.38;5036190;28;1043;-60
2024/02/24 06:05:57;;;;;;;;;;;;;;;16.44;48.76;100863.25;5036807;28;1075;-60
2024/02/24 06:08:23;;;;;;;;;;;;;;;17.10;48.19;100865.28;5019741;28;1055;-57
2024/02/24 06:10:48;;;;;;;;;;;;;;;16.83;48.47;100857.28;5026962;28;1264;-61
2024/02/24 06:13:14;;;;;;;;;;;;;;;16.25;48.95;100863.72;5036792;28;1915;-59
2024/02/24 06:15:39;;;;;;;;;;;;;;;16.29;48.58;100863.19;5036917;28;1179;-59
2024/02/24 06:18:05;;;;;;;;;;;;;;;17.69;46.95;100851.19;5022984;28;1139;-59
2024/02/24 06:20:31;;;;;;;;;;;;;;;16.62;48.60;100858.31;5035974;28;1020;-61
2024/02/24 06:22:56;;;;;;;;;;;;;;;16.28;48.42;100856.88;5035962;28;1090;-58
2024/02/24 06:25:22;;;;;;;;;;;;;;;16.34;48.45;100864.03;5036132;28;1051;-59
2024/02/24 06:27:47;;;;;;;;;;;;;;;17.93;46.66;100865.97;5036546;28;1123;-59
2024/02/24 06:30:13;;;;;;;;;;;;;;;16.76;48.67;100865.78;5025911;28;1071;-59
2024/02/24 06:32:39;;;;;;;;;;;;;;;16.40;48.30;100865.69;5033209;28;1977;-60
2024/02/24 06:35:04;;;;;;;;;;;;;;;16.14;48.09;100856.53;5036044;28;1120;-60
2024/02/24 06:37:30;;;;;;;;;;;;;;;16.18;47.92;100868.63;5032715;28;1230;-57
2024/02/24 06:39:55;;;;;;;;;;;;;;;17.78;47.16;100869.59;5026012;28;1063;-59
2024/02/24 06:42:21;;;;;;;;;;;;;;;17.23;48.21;100860.31;5035855;28;1055;-59
2024/02/24 06:44:46;;;;;;;;;;;;;;;16.64;48.75;100862.44;5036046;28;1051;-58
2024/02/24 06:47:12;;;;;;;;;;;;;;;16.31;48.29;100864.56;5035978;28;1178;-58
2024/02/24 06:49:37;;;;;;;;;;;;;;;16.99;48.46;100863.63;5026631;28;1146;-59
2024/02/24 06:52:03;;;;;;;;;;;;;;;16.47;48.45;100859.94;5029479;28;1906;-58
2024/02/24 06:54:29;;;;;;;;;;;;;;;16.25;48.13;100860.16;5026213;28;1087;-58
2024/02/24 06:56:54;;;;;;;;;;;;;;;17.79;47.16;100862.13;5035831;28;1266;-57
2024/02/24 06:59:20;;;;;;;;;;;;;;;16.68;49.14;100862.75;5035402;28;1039;-57
2024/02/24 07:01:45;;;;;;;;;;;;;;;16.34;48.66;100869.53;5035474;28;1224;-58
2024/02/24 07:04:11;;;;;;;;;;;;;;;16.28;47.89;100878.81;5027369;28;1122;-57
2024/02/24 07:06:37;;;;;;;;;;;;;;;17.34;48.07;100867.44;5029506;28;1161;-57
2024/02/24 07:09:03;;;;;;;;;;;;;;;16.75;48.98;100872.34;5016588;28;1114;-57
2024/02/24 07:11:28;;;;;;;;;;;;;;;16.37;48.92;100866.25;5018112;28;1898;-57
2024/02/24 07:13:54;;;;;;;;;;;;;;;17.20;48.65;100871.88;5027146;28;1131;-57
2024/02/24 07:16:19;;;;;;;;;;;;;;;17.18;48.40;100879.56;5035165;28;1127;-57
2024/02/24 07:18:45;;;;;;;;;;;;;;;16.50;48.93;100881.38;5030167;28;1094;-57
2024/02/24 07:21:10;;;;;;;;;;;;;;;17.72;47.78;100876.19;5035259;28;1067;-57
2024/02/24 07:23:36;;;;;;;;;;;;;;;16.96;48.60;100877.91;5033416;28;1234;-57
2024/02/24 07:26:02;;;;;;;;;;;;;;;16.50;48.87;100875.88;5037354;28;1078;-57
2024/02/24 07:28:28;;;;;;;;;;;;;;;16.39;47.85;100871.44;5019846;28;1110;-58
2024/02/24 07:30:53;;;;;;;;;;;;;;;16.17;47.48;100871.66;5033386;28;1145;-57
2024/02/24 07:33:19;;;;;;;;;;;;;;;16.16;47.03;100873.56;5028705;28;1902;-59
2024/02/24 07:35:45;;;;;;;;;;;;;;;16.58;47.98;100880.03;5039069;28;1173;-57
2024/02/24 07:38:11;;;;;;;;;;;;;;;17.18;48.53;100879.56;5038232;28;1107;-56
2024/02/24 07:40:36;;;;;;;;;;;;;;;16.39;49.11;100888.72;5039075;28;1070;-55
2024/02/24 07:43:02;;;;;;;;;;;;;;;18.01;47.42;100881.09;5030567;28;1063;-55
2024/02/24 07:45:28;;;;;;;;;;;;;;;17.18;48.55;100885.03;5034683;28;1056;-54
2024/02/24 07:47:53;;;;;;;;;;;;;;;16.70;48.72;100880.56;5038829;28;1142;-57
2024/02/24 07:50:19;;;;;;;;;;;;;;;16.40;48.19;100882.16;5038030;28;1100;-57
2024/02/24 07:52:44;;;;;;;;;;;;;;;16.18;48.15;100889.75;5038974;28;1968;-57
2024/02/24 07:55:10;;;;;;;;;;;;;;;17.66;48.07;100882.81;5037597;28;2453;-57
2024/02/24 07:57:35;;;;;;;;;;;;;;;16.80;49.20;100885.25;5027259;28;1036;-57
2024/02/24 08:00:01;;;;;;;;;;;;;;;16.39;48.94;100877.75;5039193;28;1024;-57
2024/02/24 08:02:27;;;;;;;;;;;;;;;17.47;48.34;100879.00;5038647;28;1163;-57
2024/02/24 08:04:52;;;;;;;;;;;;;;;16.62;49.18;100878.38;5038804;28;1083;-57
2024/02/24 08:07:18;;;;;;;;;;;;;;;16.32;48.82;100879.94;5038989;28;1051;-57
2024/02/24 08:09:44;;;;;;;;;;;;;;;16.92;49.19;100883.13;5038600;28;1289;-57
2024/02/24 08:12:09;;;;;;;;;;;;;;;16.81;49.37;100880.59;5038104;28;1967;-57
2024/02/24 08:14:36;;;;;;;;;;;;;;;16.44;48.96;100882.47;5038274;28;1062;-57
2024/02/24 08:17:01;;;;;;;;;;;;;;;16.22;48.35;100879.91;5039041;28;1218;-57
2024/02/24 08:19:27;;;;;;;;;;;;;;;16.91;49.00;100878.75;5025549;28;996;-57
2024/02/24 08:21:53;;;;;;;;;;;;;;;17.55;48.00;100872.94;5038726;28;1047;-57
2024/02/24 08:24:18;;;;;;;;;;;;;;;16.71;49.04;100875.94;5027574;28;1000;-57
2024/02/24 08:26:45;;;;;;;;;;;;;;;16.42;48.56;100882.72;5038499;28;1048;-57
2024/02/24 08:29:10;;;;;;;;;;;;;;;17.73;47.80;100874.28;5025048;28;1067;-59
2024/02/24 08:31:36;;;;;;;;;;;;;;;16.76;49.31;100873.19;5038493;28;1906;-57
2024/02/24 08:34:02;;;;;;;;;;;;;;;16.49;48.68;100874.22;5037852;28;1114;-58
2024/02/24 08:36:27;;;;;;;;;;;;;;;16.35;48.10;100870.34;5037922;28;1062;-57
2024/02/24 08:38:53;;;;;;;;;;;;;;;16.17;47.79;100871.66;5038630;28;1027;-57
2024/02/24 08:41:18;;;;;;;;;;;;;;;17.61;48.20;100864.41;5038302;28;1052;-57
2024/02/24 08:43:44;;;;;;;;;;;;;;;16.88;49.28;100870.19;5035664;28;1199;-57
2024/02/24 08:46:10;;;;;;;;;;;;;;;16.46;48.91;100869.28;5018248;28;1123;-56
2024/02/24 08:48:35;;;;;;;;;;;;;;;17.52;48.38;100857.00;5023895;28;1137;-56
2024/02/24 08:51:01;;;;;;;;;;;;;;;17.33;48.68;100859.50;5038228;28;1103;-57
2024/02/24 08:53:26;;;;;;;;;;;;;;;16.73;49.03;100860.84;5038323;28;1897;-57
2024/02/24 08:55:52;;;;;;;;;;;;;;;16.57;48.50;100859.16;5037381;28;1124;-56
2024/02/24 08:58:17;;;;;;;;;;;;;;;16.41;48.13;100861.88;5038092;28;1158;-56
2024/02/24 09:00:43;;;;;;;;;;;;;;;16.15;47.98;100857.38;5037707;28;1031;-57
2024/02/24 09:03:09;;;;;;;;;;;;;;;17.01;48.56;100858.69;5037910;28;1087;-54
2024/02/24 09:05:35;;;;;;;;;;;;;;;17.81;47.88;100864.59;5029322;28;1066;-54
2024/02/24 09:08:00;;;;;;;;;;;;;;;16.80;49.38;100862.47;5033307;28;1095;-53
2024/02/24 09:10:26;;;;;;;;;;;;;;;16.53;48.84;100867.09;5029039;28;1110;-55
2024/02/24 09:12:51;;;;;;;;;;;;;;;17.09;49.14;100866.34;5032941;28;1913;-54
2024/02/24 09:15:17;;;;;;;;;;;;;;;17.27;49.00;100851.25;5036704;28;1102;-56
2024/02/24 09:17:42;;;;;;;;;;;;;;;16.70;49.06;100864.09;5024530;28;1074;-56
2024/02/24 09:20:08;;;;;;;;;;;;;;;16.50;48.50;100858.59;5030861;28;1142;-54
2024/02/24 09:22:35;;;;;;;;;;;;;;;16.33;48.33;100854.16;5031699;28;1091;-55
2024/02/24 09:25:00;;;;;;;;;;;;;;;17.35;48.70;100851.78;5037104;28;1036;-50
2024/02/24 09:27:26;;;;;;;;;;;;;;;16.65;49.48;100858.63;5036239;28;1084;-58
2024/02/24 09:29:51;;;;;;;;;;;;;;;16.35;48.88;100862.09;5030159;28;1123;-54
2024/02/24 09:32:17;;;;;;;;;;;;;;;17.31;48.71;100859.78;5031473;28;1897;-54
2024/02/24 09:34:44;;;;;;;;;;;;;;;17.10;49.08;100851.53;5037237;28;1055;-56
2024/02/24 09:37:09;;;;;;;;;;;;;;;16.60;49.22;100861.34;5028889;28;1052;-56
2024/02/24 09:39:35;;;;;;;;;;;;;;;17.72;48.28;100854.19;5037220;28;1142;-55
2024/02/24 09:42:01;;;;;;;;;;;;;;;16.80;49.23;100852.31;5036887;28;1230;-56
2024/02/24 09:44:28;;;;;;;;;;;;;;;16.50;48.92;100851.16;5036918;28;1114;-56
2024/02/24 09:46:54;;;;;;;;;;;;;;;16.36;48.53;100837.13;5022109;28;1043;-56
2024/02/24 09:49:20;;;;;;;;;;;;;;;16.25;47.99;100843.69;5025191;28;1071;-54
2024/02/24 09:51:47;;;;;;;;;;;;;;;17.66;48.33;100847.06;5035691;28;1984;-53
2024/02/24 09:54:12;;;;;;;;;;;;;;;16.97;49.45;100851.25;5068739;28;1060;-54
2024/02/24 09:56:38;;;;;;;;;;;;;;;16.52;49.36;100848.16;5034810;28;1246;-53
2024/02/24 09:59:03;;;;;;;;;;;;;;;16.37;48.52;100848.97;5025403;28;1138;-55
2024/02/24 10:01:29;;;;;;;;;;;;;;;16.24;48.07;100845.63;5061404;28;1074;-54
2024/02/24 10:03:54;;;;;;;;;;;;;;;16.62;48.42;100839.09;5036519;28;1213;-58
2024/02/24 10:06:20;;;;;;;;;;;;;;;18.09;47.83;100839.22;5022008;28;1040;-58
2024/02/24 10:08:47;;;;;;;;;;;;;;;17.01;49.57;100835.88;5016547;28;1149;-57
2024/02/24 10:11:13;;;;;;;;;;;;;;;16.59;49.50;100829.50;5029832;28;1270;-57
2024/02/24 10:13:38;;;;;;;;;;;;;;;17.37;49.13;100822.09;5025877;28;1906;-57
2024/02/24 10:16:07;;;;;;;;;;;;;;;16.80;49.55;100829.53;5036003;28;1031;-58
2024/02/24 10:18:33;;;;;;;;;;;;;;;16.61;48.90;100827.31;5036526;28;1012;-59
2024/02/24 10:20:58;;;;;;;;;;;;;;;16.50;48.07;100836.63;5035259;28;1167;-58
2024/02/24 10:23:24;;;;;;;;;;;;;;;16.32;48.01;100829.72;5024515;28;1071;-54
2024/02/24 10:25:50;;;;;;;;;;;;;;;17.37;48.58;100827.59;5067764;28;1137;-56
2024/02/24 10:28:16;;;;;;;;;;;;;;;16.98;49.54;100814.44;5036089;28;1126;-56
2024/02/24 10:30:42;;;;;;;;;;;;;;;16.57;49.21;100813.28;5035132;28;1071;-56
2024/02/24 10:33:08;;;;;;;;;;;;;;;16.42;48.49;100810.53;5024419;28;2105;-57
2024/02/24 10:35:34;;;;;;;;;;;;;;;17.28;48.89;100816.34;5036125;28;1035;-56
2024/02/24 10:37:59;;;;;;;;;;;;;;;16.83;49.34;100815.25;5040721;28;890;-57
2024/02/24 10:40:25;;;;;;;;;;;;;;;16.42;49.17;100819.59;5031153;28;1103;-59
2024/02/24 10:42:50;;;;;;;;;;;;;;;16.40;48.43;100813.53;5027319;28;1063;-59
2024/02/24 10:45:16;;;;;;;;;;;;;;;16.34;48.39;100811.06;5049217;28;1003;-58
2024/02/24 10:47:41;;;;;;;;;;;;;;;17.79;47.94;100807.97;5067720;28;1079;-58
2024/02/24 10:50:11;;;;;;;;;;;;;;;16.71;49.76;100819.06;5034787;28;1444;-56
2024/02/24 10:52:37;;;;;;;;;;;;;;;16.56;48.87;100817.16;5035926;28;1906;-59
2024/02/24 10:55:03;;;;;;;;;;;;;;;17.07;49.39;100808.13;5034730;28;1152;-57
2024/02/24 10:57:28;;;;;;;;;;;;;;;17.09;49.51;100808.66;5035930;28;1062;-56
2024/02/24 10:59:54;;;;;;;;;;;;;;;16.64;49.46;100809.47;5034538;28;1060;-57
2024/02/24 11:02:21;;;;;;;;;;;;;;;16.47;48.76;100809.72;5035692;28;931;-56
2024/02/24 11:04:46;;;;;;;;;;;;;;;16.39;48.09;100787.19;5068058;28;1076;-57
2024/02/24 11:07:18;;;;;;;;;;;;;;;17.35;48.65;100802.31;5028064;28;1110;-57
2024/02/24 11:09:50;;;;;;;;;;;;;;;16.55;49.61;100801.78;5029319;28;1043;-58
2024/02/24 11:12:16;;;;;;;;;;;;;;;16.39;48.94;100808.34;5025991;28;1974;-57
2024/02/24 11:14:42;;;;;;;;;;;;;;;16.28;48.38;100803.91;5031404;28;1405;-58
2024/02/24 11:17:09;;;;;;;;;;;;;;;16.19;47.75;100803.63;5025184;28;1076;-56
2024/02/24 11:19:41;;;;;;;;;;;;;;;16.46;48.18;100802.59;5032673;28;1040;-55
2024/02/24 11:22:11;;;;;;;;;;;;;;;17.66;48.22;100796.75;5047804;28;1150;-52
2024/02/24 11:24:36;;;;;;;;;;;;;;;16.70;49.50;100800.94;5029438;28;1127;-52
2024/02/24 11:27:02;;;;;;;;;;;;;;;16.30;49.44;100791.59;5021358;28;1122;-52
2024/02/24 11:29:28;;;;;;;;;;;;;;;17.45;48.73;100786.63;5060915;28;1091;-53
2024/02/24 11:32:10;;;;;;;;;;;;;;;16.67;49.40;100785.03;5026710;28;1987;-52
2024/02/24 11:34:35;;;;;;;;;;;;;;;16.85;49.80;100780.91;5035872;28;1019;-53
2024/02/24 11:37:01;;;;;;;;;;;;;;;17.06;49.44;100775.44;5035816;28;1175;-54
2024/02/24 11:39:26;;;;;;;;;;;;;;;16.69;49.16;100780.09;5028987;28;1043;-55
2024/02/24 11:41:54;;;;;;;;;;;;;;;16.37;49.02;100786.66;5059734;28;1039;-53
2024/02/24 11:44:20;;;;;;;;;;;;;;;16.60;48.99;100787.22;5029424;28;1067;-56
2024/02/24 11:46:46;;;;;;;;;;;;;;;16.90;49.42;100777.34;5028585;28;1226;-54
2024/02/24 11:49:11;;;;;;;;;;;;;;;16.52;49.19;100785.00;5034344;28;1304;-54
2024/02/24 11:51:37;;;;;;;;;;;;;;;16.32;48.64;100781.16;5035029;28;855;-55
2024/02/24 11:54:03;;;;;;;;;;;;;;;17.51;48.53;100778.38;5035501;28;1227;-54
2024/02/24 11:56:29;;;;;;;;;;;;;;;17.35;48.85;100781.16;5035339;28;1091;-54
2024/02/24 11:58:57;;;;;;;;;;;;;;;16.77;49.35;100784.22;5035015;28;1118;-58
2024/02/24 12:01:23;;;;;;;;;;;;;;;16.62;48.71;100778.72;5037219;28;1174;-58
2024/02/24 12:03:53;;;;;;;;;;;;;;;16.44;47.96;100775.41;5038972;28;1051;-58
2024/02/24 12:06:18;;;;;;;;;;;;;;;17.25;48.67;100781.16;5039096;28;1426;-59
2024/02/24 12:08:44;;;;;;;;;;;;;;;17.30;48.95;100777.59;5038854;28;1040;-58
2024/02/24 12:11:10;;;;;;;;;;;;;;;16.72;49.64;100773.25;5037531;28;1096;-58
2024/02/24 12:13:35;;;;;;;;;;;;;;;16.58;48.39;100767.47;5038617;28;1909;-58
2024/02/24 12:16:01;;;;;;;;;;;;;;;16.44;48.20;100780.91;5039029;28;1147;-58
2024/02/24 12:18:28;;;;;;;;;;;;;;;16.32;47.82;100770.16;5018731;28;1171;-57
2024/02/24 12:20:53;;;;;;;;;;;;;;;17.26;48.78;100772.66;5032463;28;1040;-58
2024/02/24 12:23:20;;;;;;;;;;;;;;;16.88;49.23;100780.38;5038508;28;1183;-57
2024/02/24 12:25:48;;;;;;;;;;;;;;;16.56;48.77;100781.47;5026598;28;1031;-57
2024/02/24 12:28:13;;;;;;;;;;;;;;;16.42;48.34;100786.66;5038423;28;1099;-57
2024/02/24 12:30:39;;;;;;;;;;;;;;;16.70;48.67;100778.97;5025114;28;1094;-57
2024/02/24 12:33:05;;;;;;;;;;;;;;;16.76;49.38;100774.34;5018607;28;1976;-57
2024/02/24 12:35:31;;;;;;;;;;;;;;;16.42;48.83;100786.66;5032118;28;1051;-57
2024/02/24 12:37:56;;;;;;;;;;;;;;;17.24;48.67;100774.03;5037711;28;1059;-58
2024/02/24 12:40:28;;;;;;;;;;;;;;;17.51;48.73;100773.69;5038343;28;1279;-58